createdAt,value
2023-02-11T00:01:26.365Z,85.24
2023-02-11T00:03:54.572Z,85.04
2023-02-11T00:06:22.897Z,86.38
2023-02-11T00:08:50.688Z,84.36
2023-02-11T00:11:20.874Z,84.62
2023-02-11T00:13:50.345Z,85.12
2023-02-11T00:16:20.751Z,85.00
2023-02-11T00:18:48.967Z,83.84
2023-02-11T00:21:18.290Z,83.87
2023-02-11T00:23:47.345Z,84.18
2023-02-11T00:26:16.083Z,85.43
2023-02-11T00:28:44.531Z,84.42
2023-02-11T00:31:14.825Z,84.74
2023-02-11T00:33:43.158Z,84.79
2023-02-11T00:36:15.144Z,86.01
2023-02-11T00:38:44.177Z,84.91
2023-02-11T00:41:13.079Z,85.21
2023-02-11T00:43:41.164Z,85.14
2023-02-11T00:46:09.787Z,85.68
2023-02-11T00:48:39.122Z,84.54
2023-02-11T00:51:07.627Z,84.37
2023-02-11T00:53:35.868Z,85.11
2023-02-11T00:56:03.485Z,88.92
2023-02-11T00:58:31.469Z,85.95
2023-02-11T01:00:59.557Z,84.92
2023-02-11T01:03:27.703Z,85.07
2023-02-11T01:05:57.558Z,85.43
2023-02-11T01:08:25.352Z,85.70
2023-02-11T01:10:58.242Z,85.05
2023-02-11T01:13:27.329Z,85.65
2023-02-11T01:15:55.299Z,85.47
2023-02-11T01:18:23.114Z,85.95
2023-02-11T01:20:52.458Z,84.90
2023-02-11T01:23:22.171Z,85.29
2023-02-11T01:25:50.769Z,85.30
2023-02-11T01:28:20.369Z,85.60
2023-02-11T01:30:48.629Z,85.77
2023-02-11T01:33:16.593Z,85.98
2023-02-11T01:35:44.714Z,85.25
2023-02-11T01:38:17.331Z,86.23
2023-02-11T01:40:53.735Z,86.25
2023-02-11T01:43:21.842Z,86.64
2023-02-11T01:45:59.632Z,86.15
2023-02-11T01:48:31.183Z,87.09
2023-02-11T01:51:03.913Z,86.40
2023-02-11T01:53:51.663Z,85.98
2023-02-11T01:56:39.418Z,85.87
2023-02-11T01:59:13.394Z,86.00
2023-02-11T02:01:50.074Z,86.16
2023-02-11T02:04:20.368Z,85.21
2023-02-11T02:06:53.132Z,85.55
2023-02-11T02:09:24.932Z,85.54
2023-02-11T02:11:54.182Z,85.35
2023-02-11T02:14:22.034Z,85.89
2023-02-11T02:16:49.984Z,86.05
2023-02-11T02:19:48.967Z,86.51
2023-02-11T02:22:54.904Z,87.38
2023-02-11T02:25:57.149Z,86.99
2023-02-11T02:28:46.125Z,86.33
2023-02-11T02:31:32.894Z,86.83
2023-02-11T02:34:06.607Z,85.59
2023-02-11T02:36:42.289Z,85.95
2023-02-11T02:39:16.620Z,86.88
2023-02-11T02:41:46.091Z,86.18
2023-02-11T02:44:13.912Z,86.45
2023-02-11T02:46:41.711Z,85.74
2023-02-11T02:49:14.564Z,86.56
2023-02-11T02:52:04.131Z,86.98
2023-02-11T02:55:03.817Z,87.88
2023-02-11T02:57:39.775Z,86.84
2023-02-11T03:00:20.371Z,87.67
2023-02-11T03:03:00.029Z,87.86
2023-02-11T03:05:39.534Z,87.81
2023-02-11T03:08:11.223Z,88.23
2023-02-11T03:10:43.666Z,88.45
2023-02-11T03:13:12.571Z,88.42
2023-02-11T03:15:44.559Z,88.01
2023-02-11T03:18:16.605Z,87.35
2023-02-11T03:20:49.092Z,87.14
2023-02-11T03:23:20.687Z,87.72
2023-02-11T03:25:56.276Z,88.53
2023-02-11T03:28:32.073Z,87.94
2023-02-11T03:31:13.594Z,87.93
2023-02-11T03:33:49.763Z,87.69
2023-02-11T03:36:25.129Z,88.09
2023-02-11T03:38:57.903Z,89.44
2023-02-11T03:41:26.595Z,88.84
2023-02-11T03:43:57.974Z,88.16
2023-02-11T03:46:32.398Z,89.42
2023-02-11T03:49:04.030Z,88.18
2023-02-11T03:51:34.169Z,88.02
2023-02-11T03:54:06.819Z,89.25
2023-02-11T03:56:39.599Z,88.82
2023-02-11T03:59:08.612Z,89.76
2023-02-11T04:01:36.443Z,88.87
2023-02-11T04:04:04.487Z,87.66
2023-02-11T04:06:33.612Z,88.03
2023-02-11T04:09:01.418Z,89.25
2023-02-11T04:11:29.245Z,88.37
2023-02-11T04:13:57.015Z,90.16
2023-02-11T04:16:25.019Z,88.93
2023-02-11T04:18:52.824Z,88.26
2023-02-11T04:21:20.597Z,87.88
2023-02-11T04:23:49.999Z,88.31
2023-02-11T04:26:17.773Z,88.08
2023-02-11T04:28:45.586Z,89.18
2023-02-11T04:31:13.420Z,88.75
2023-02-11T04:33:41.265Z,89.55
2023-02-11T04:36:09.446Z,89.32
2023-02-11T04:38:37.310Z,88.40
2023-02-11T04:41:06.728Z,87.44
2023-02-11T04:43:34.487Z,88.71
2023-02-11T04:46:02.322Z,88.25
2023-02-11T04:48:30.141Z,88.57
2023-02-11T04:50:57.923Z,88.23
2023-02-11T04:53:25.734Z,88.11
2023-02-11T04:55:53.708Z,89.20
2023-02-11T04:58:22.931Z,89.21
2023-02-11T05:00:50.832Z,89.61
2023-02-11T05:03:18.747Z,90.26
2023-02-11T05:05:46.528Z,89.63
2023-02-11T05:08:14.640Z,88.88
2023-02-11T05:10:47.046Z,89.42
2023-02-11T05:13:15.138Z,89.36
2023-02-11T05:15:44.347Z,88.99
2023-02-11T05:18:12.090Z,89.14
2023-02-11T05:20:40.036Z,90.34
2023-02-11T05:23:07.805Z,89.94
2023-02-11T05:25:35.711Z,89.68
2023-02-11T05:28:04.128Z,90.07
2023-02-11T05:30:32.061Z,89.17
2023-02-11T05:33:01.189Z,88.81
2023-02-11T05:35:29.015Z,89.54
2023-02-11T05:37:56.783Z,88.68
2023-02-11T05:40:24.534Z,88.17
2023-02-11T05:42:52.295Z,89.09
2023-02-11T05:45:20.105Z,89.27
2023-02-11T05:47:47.909Z,89.46
2023-02-11T05:50:17.060Z,88.82
2023-02-11T05:52:44.877Z,89.65
2023-02-11T05:55:12.754Z,89.14
2023-02-11T05:57:40.608Z,88.58
2023-02-11T06:00:09.631Z,89.13
2023-02-11T06:02:40.755Z,89.08
2023-02-11T06:05:09.442Z,89.55
2023-02-11T06:07:38.583Z,89.49
2023-02-11T06:10:07.448Z,88.65
2023-02-11T06:12:35.726Z,89.06
2023-02-11T06:15:03.303Z,93.19
2023-02-11T06:17:31.723Z,90.00
2023-02-11T06:19:59.493Z,90.00
2023-02-11T06:22:27.374Z,90.11
2023-02-11T06:25:01.616Z,89.84
2023-02-11T06:27:30.035Z,89.39
2023-02-11T06:29:57.851Z,89.07
2023-02-11T06:32:42.776Z,88.51
2023-02-11T06:35:12.747Z,89.77
2023-02-11T06:37:40.855Z,89.49
2023-02-11T06:40:10.351Z,88.15
2023-02-11T06:42:39.165Z,89.40
2023-02-11T06:45:09.098Z,89.04
2023-02-11T06:47:37.079Z,89.33
2023-02-11T06:50:05.846Z,88.75
2023-02-11T06:52:34.500Z,88.11
2023-02-11T06:55:02.572Z,88.16
2023-02-11T06:57:32.704Z,88.58
2023-02-11T07:00:00.483Z,88.17
2023-02-11T07:02:28.366Z,88.49
2023-02-11T07:04:56.175Z,88.90
2023-02-11T07:07:24.010Z,89.64
2023-02-11T07:09:51.743Z,89.64
2023-02-11T07:12:19.523Z,89.54
2023-02-11T07:14:48.624Z,89.07
2023-02-11T07:17:16.501Z,89.04
2023-02-11T07:19:44.276Z,89.32
2023-02-11T07:22:12.103Z,88.60
2023-02-11T07:24:39.944Z,89.55
2023-02-11T07:27:07.804Z,88.50
2023-02-11T07:29:35.568Z,88.04
2023-02-11T07:32:04.842Z,88.81
2023-02-11T07:34:33.128Z,89.05
2023-02-11T07:37:00.816Z,92.35
2023-02-11T07:39:29.429Z,88.73
2023-02-11T07:41:57.584Z,89.06
2023-02-11T07:44:25.854Z,88.11
2023-02-11T07:46:53.898Z,88.22
2023-02-11T07:49:23.030Z,88.56
2023-02-11T07:51:51.382Z,89.08
2023-02-11T07:54:19.270Z,89.14
2023-02-11T07:56:47.075Z,88.72
2023-02-11T07:59:14.904Z,89.88
2023-02-11T08:01:42.693Z,88.83
2023-02-11T08:04:10.573Z,87.94
2023-02-11T08:06:43.072Z,87.90
2023-02-11T08:09:15.639Z,87.92
2023-02-11T08:11:44.222Z,88.50
2023-02-11T08:14:12.655Z,88.46
2023-02-11T08:16:40.284Z,92.49
2023-02-11T08:19:09.855Z,88.49
2023-02-11T08:21:39.342Z,88.92
2023-02-11T08:24:08.549Z,89.17
2023-02-11T08:26:37.399Z,88.48
2023-02-11T08:29:08.936Z,88.52
2023-02-11T08:31:39.513Z,88.79
2023-02-11T08:34:07.768Z,89.31
2023-02-11T08:36:37.309Z,88.80
2023-02-11T08:39:18.567Z,88.95
2023-02-11T08:41:48.778Z,88.80
2023-02-11T08:44:16.968Z,89.37
2023-02-11T08:46:44.756Z,88.87
2023-02-11T08:49:12.603Z,89.19
2023-02-11T08:51:40.845Z,89.03
2023-02-11T08:54:10.416Z,88.90
2023-02-11T08:56:38.550Z,88.58
2023-02-11T08:59:07.095Z,88.31
2023-02-11T09:01:35.012Z,88.77
2023-02-11T09:04:02.855Z,88.63
2023-02-11T09:06:31.204Z,88.65
2023-02-11T09:09:00.030Z,88.46
2023-02-11T09:11:31.836Z,88.26
2023-02-11T09:13:59.804Z,86.98
2023-02-11T09:16:29.589Z,87.36
2023-02-11T09:18:58.916Z,87.28
2023-02-11T09:21:27.628Z,87.54
2023-02-11T09:23:55.406Z,88.21
2023-02-11T09:26:26.286Z,87.10
2023-02-11T09:28:55.591Z,86.78
2023-02-11T09:31:25.988Z,87.07
2023-02-11T09:33:56.314Z,87.34
2023-02-11T09:36:25.669Z,87.29
2023-02-11T09:38:54.598Z,87.18
2023-02-11T09:41:40.260Z,87.20
2023-02-11T09:44:18.696Z,86.60
2023-02-11T09:46:53.133Z,86.51
2023-02-11T09:49:26.396Z,86.81
2023-02-11T09:51:59.921Z,86.55
2023-02-11T09:54:34.921Z,86.26
2023-02-11T09:57:02.767Z,85.85
2023-02-11T09:59:31.964Z,85.81
2023-02-11T10:02:03.942Z,85.80
2023-02-11T10:04:51.394Z,85.77
2023-02-11T10:07:26.995Z,85.38
2023-02-11T10:10:08.602Z,85.27
2023-02-11T10:12:45.117Z,86.20
2023-02-11T10:15:19.980Z,85.17
2023-02-11T10:17:56.196Z,85.56
2023-02-11T10:20:32.675Z,84.41
2023-02-11T10:23:03.004Z,84.03
2023-02-11T10:25:36.012Z,83.67
2023-02-11T10:28:14.008Z,82.97
2023-02-11T10:30:47.572Z,82.54
2023-02-11T10:33:24.092Z,82.56
2023-02-11T10:35:52.800Z,81.85
2023-02-11T10:38:20.938Z,81.17
2023-02-11T10:40:48.608Z,78.96
2023-02-11T10:43:18.479Z,80.55
2023-02-11T10:45:50.223Z,80.70
2023-02-11T10:48:43.514Z,79.17
2023-02-11T10:51:23.410Z,79.42
2023-02-11T10:54:13.827Z,80.44
2023-02-11T10:56:46.777Z,80.00
2023-02-11T10:59:23.627Z,79.85
2023-02-11T11:01:57.571Z,79.96
2023-02-11T11:04:36.497Z,79.46
2023-02-11T11:07:20.447Z,78.91
2023-02-11T11:09:52.847Z,79.32
2023-02-11T11:12:30.155Z,79.01
2023-02-11T11:15:00.639Z,78.67
2023-02-11T11:17:30.471Z,78.80
2023-02-11T11:20:27.294Z,76.06
2023-02-11T11:23:19.483Z,75.77
2023-02-11T11:26:01.693Z,77.00
2023-02-11T11:28:32.412Z,76.85
2023-02-11T11:31:00.931Z,77.10
2023-02-11T11:33:34.111Z,76.47
2023-02-11T11:36:07.461Z,76.15
2023-02-11T11:38:38.475Z,76.17
2023-02-11T11:41:21.689Z,72.35
2023-02-11T11:44:09.412Z,74.11
2023-02-11T11:46:40.190Z,75.88
2023-02-11T11:49:23.241Z,73.86
2023-02-11T11:51:59.236Z,75.00
2023-02-11T11:54:29.141Z,75.36
2023-02-11T11:57:02.190Z,74.33
2023-02-11T11:59:31.239Z,75.03
2023-02-11T12:02:29.446Z,72.10
2023-02-11T12:05:04.475Z,74.63
2023-02-11T12:07:45.158Z,74.48
2023-02-11T12:10:38.158Z,74.26
2023-02-11T12:13:22.067Z,74.39
2023-02-11T12:16:02.724Z,74.36
2023-02-11T12:18:47.294Z,73.48
2023-02-11T12:21:36.249Z,73.49
2023-02-11T12:24:17.540Z,74.35
2023-02-11T12:26:50.649Z,74.60
2023-02-11T12:29:27.895Z,73.92
2023-02-11T12:32:08.662Z,73.09
2023-02-11T12:35:12.046Z,72.24
2023-02-11T12:37:59.427Z,73.14
2023-02-11T12:40:39.331Z,72.43
2023-02-11T12:43:21.525Z,69.14
2023-02-11T12:46:09.005Z,67.26
2023-02-11T12:49:01.518Z,66.61
2023-02-11T12:51:41.462Z,65.57
2023-02-11T12:54:28.590Z,61.96
2023-02-11T12:57:03.069Z,65.42
2023-02-11T12:59:39.478Z,64.97
2023-02-11T13:02:18.198Z,66.18
2023-02-11T13:04:51.635Z,65.46
2023-02-11T13:07:25.698Z,65.11
2023-02-11T13:10:02.090Z,64.52
2023-02-11T13:12:49.639Z,65.08
2023-02-11T13:15:17.811Z,64.43
2023-02-11T13:17:53.754Z,62.73
2023-02-11T13:20:35.814Z,63.76
2023-02-11T13:23:12.239Z,64.52
2023-02-11T13:25:50.124Z,64.92
2023-02-11T13:28:29.268Z,63.42
2023-02-11T13:31:02.797Z,64.88
2023-02-11T13:33:36.499Z,65.02
2023-02-11T13:36:17.609Z,60.08
2023-02-11T13:38:55.420Z,62.10
2023-02-11T13:41:30.219Z,65.00
2023-02-11T13:44:04.753Z,66.22
2023-02-11T13:46:47.214Z,59.06
2023-02-11T13:49:20.872Z,65.85
2023-02-11T13:51:50.073Z,66.58
2023-02-11T13:54:26.129Z,65.26
2023-02-11T13:57:31.482Z,61.77
2023-02-11T14:00:02.470Z,66.93
2023-02-11T14:02:50.963Z,67.12
2023-02-11T14:05:48.596Z,65.52
2023-02-11T14:08:40.020Z,66.01
2023-02-11T14:11:12.745Z,67.27
2023-02-11T14:14:15.121Z,63.39
2023-02-11T14:17:22.279Z,63.40
2023-02-11T14:19:51.895Z,68.03
2023-02-11T14:22:26.670Z,67.50
2023-02-11T14:24:57.502Z,68.16
2023-02-11T14:27:31.488Z,67.86
2023-02-11T14:30:44.420Z,64.91
2023-02-11T14:33:46.898Z,65.48
2023-02-11T14:36:30.567Z,67.77
2023-02-11T14:39:07.425Z,67.81
2023-02-11T14:41:40.824Z,68.21
2023-02-11T14:44:16.480Z,66.98
2023-02-11T14:46:46.919Z,68.39
2023-02-11T14:49:25.050Z,66.84
2023-02-11T14:51:57.560Z,68.32
2023-02-11T14:54:28.480Z,68.30
2023-02-11T14:57:12.665Z,65.20
2023-02-11T14:59:41.593Z,68.66
2023-02-11T15:02:22.678Z,66.26
2023-02-11T15:04:50.903Z,68.90
2023-02-11T15:07:20.088Z,69.08
2023-02-11T15:09:51.706Z,69.38
2023-02-11T15:12:24.932Z,69.47
2023-02-11T15:14:55.241Z,69.66
2023-02-11T15:17:26.214Z,69.74
2023-02-11T15:19:57.656Z,69.65
2023-02-11T15:22:29.335Z,70.05
2023-02-11T15:25:03.627Z,69.89
2023-02-11T15:27:40.086Z,69.74
2023-02-11T15:30:28.944Z,69.07
2023-02-11T15:32:59.961Z,70.63
2023-02-11T15:35:29.816Z,70.64
2023-02-11T15:38:00.678Z,70.90
2023-02-11T15:40:32.296Z,70.76
2023-02-11T15:43:02.673Z,71.25
2023-02-11T15:45:32.797Z,71.01
2023-02-11T15:48:09.103Z,71.29
2023-02-11T15:50:37.788Z,71.97
2023-02-11T15:53:23.048Z,71.21
2023-02-11T15:55:53.596Z,72.06
2023-02-11T15:58:23.304Z,72.46
2023-02-11T16:00:56.588Z,72.25
2023-02-11T16:03:27.771Z,72.42
2023-02-11T16:05:56.499Z,72.44
2023-02-11T16:08:29.320Z,72.54
2023-02-11T16:10:59.420Z,72.80
2023-02-11T16:13:30.682Z,73.06
2023-02-11T16:16:02.391Z,73.08
2023-02-11T16:18:38.705Z,73.24
2023-02-11T16:21:16.739Z,73.52
2023-02-11T16:23:52.186Z,73.81
2023-02-11T16:26:28.676Z,73.61
2023-02-11T16:29:08.624Z,73.62
2023-02-11T16:31:38.426Z,73.88
2023-02-11T16:34:14.324Z,74.33
2023-02-11T16:36:42.530Z,73.94
2023-02-11T16:39:11.922Z,74.15
2023-02-11T16:41:39.720Z,74.22
2023-02-11T16:44:07.782Z,74.27
2023-02-11T16:46:35.950Z,74.50
2023-02-11T16:49:11.217Z,74.58
2023-02-11T16:51:42.538Z,74.99
2023-02-11T16:54:16.172Z,74.80
2023-02-11T16:56:44.572Z,74.98
2023-02-11T16:59:12.429Z,74.75
2023-02-11T17:01:42.003Z,75.19
2023-02-11T17:04:15.011Z,75.26
2023-02-11T17:06:42.828Z,75.10
2023-02-11T17:09:16.595Z,75.12
2023-02-11T17:11:45.774Z,75.30
2023-02-11T17:14:14.909Z,75.61
2023-02-11T17:16:43.517Z,75.32
2023-02-11T17:19:13.958Z,75.65
2023-02-11T17:21:43.233Z,75.80
2023-02-11T17:24:12.282Z,75.75
2023-02-11T17:26:43.790Z,75.63
2023-02-11T17:29:16.048Z,76.41
2023-02-11T17:31:44.313Z,76.29
2023-02-11T17:34:12.641Z,76.15
2023-02-11T17:36:41.361Z,76.53
2023-02-11T17:39:10.147Z,76.64
2023-02-11T17:41:38.914Z,76.84
2023-02-11T17:44:08.326Z,76.53
2023-02-11T17:46:37.581Z,76.84
2023-02-11T17:49:05.733Z,77.00
2023-02-11T17:51:35.332Z,76.90
2023-02-11T17:54:05.144Z,77.03
2023-02-11T17:56:34.684Z,77.09
2023-02-11T17:59:03.122Z,77.22
2023-02-11T18:01:32.468Z,77.13
2023-02-11T18:04:02.384Z,77.33
2023-02-11T18:06:30.292Z,77.52
2023-02-11T18:08:59.802Z,77.49
2023-02-11T18:11:27.892Z,77.64
2023-02-11T18:13:55.806Z,77.77
2023-02-11T18:16:25.144Z,77.64
2023-02-11T18:18:53.028Z,77.86
2023-02-11T18:21:23.938Z,77.94
2023-02-11T18:23:51.848Z,77.86
2023-02-11T18:26:22.428Z,77.75
2023-02-11T18:28:52.543Z,77.94
2023-02-11T18:31:21.879Z,77.99
2023-02-11T18:33:49.786Z,77.96
2023-02-11T18:36:17.728Z,78.12
2023-02-11T18:38:46.959Z,78.03
2023-02-11T18:41:15.124Z,78.70
2023-02-11T18:43:43.271Z,78.28
2023-02-11T18:46:13.381Z,78.26
2023-02-11T18:48:42.262Z,78.33
2023-02-11T18:51:11.553Z,78.53
2023-02-11T18:53:39.501Z,78.55
2023-02-11T18:56:11.796Z,78.29
2023-02-11T18:58:39.977Z,78.43
2023-02-11T19:01:13.954Z,78.77
2023-02-11T19:03:41.890Z,78.24
2023-02-11T19:06:15.271Z,78.71
2023-02-11T19:08:43.312Z,78.45
2023-02-11T19:11:12.291Z,80.27
2023-02-11T19:13:40.124Z,78.74
2023-02-11T19:16:11.364Z,78.92
2023-02-11T19:18:39.974Z,78.63
2023-02-11T19:21:09.167Z,78.59
2023-02-11T19:23:37.684Z,78.74
2023-02-11T19:26:06.547Z,78.70
2023-02-11T19:28:37.061Z,78.91
2023-02-11T19:31:09.710Z,79.10
2023-02-11T19:33:38.011Z,78.85
2023-02-11T19:36:08.135Z,78.45
2023-02-11T19:38:36.451Z,78.62
2023-02-11T19:41:05.028Z,78.64
2023-02-11T19:43:32.831Z,78.85
2023-02-11T19:46:04.538Z,78.77
2023-02-11T19:48:32.371Z,78.76
2023-02-11T19:51:07.741Z,78.80
2023-02-11T19:53:35.758Z,78.80
2023-02-11T19:56:04.120Z,78.67
2023-02-11T19:58:31.882Z,78.75
2023-02-11T20:01:07.761Z,78.68
2023-02-11T20:03:36.194Z,78.99
2023-02-11T20:06:06.325Z,78.81
2023-02-11T20:08:34.875Z,78.88
2023-02-11T20:11:07.407Z,78.67
2023-02-11T20:13:35.498Z,78.92
2023-02-11T20:16:09.130Z,79.90
2023-02-11T20:18:37.903Z,78.63
2023-02-11T20:21:09.715Z,78.90
2023-02-11T20:23:38.316Z,78.90
2023-02-11T20:26:07.852Z,79.16
2023-02-11T20:28:36.541Z,79.02
2023-02-11T20:31:05.235Z,78.95
2023-02-11T20:33:34.898Z,79.13
2023-02-11T20:36:05.664Z,79.15
2023-02-11T20:38:33.647Z,78.92
2023-02-11T20:41:04.456Z,78.91
2023-02-11T20:43:32.364Z,78.90
2023-02-11T20:46:03.971Z,78.96
2023-02-11T20:48:32.351Z,79.32
2023-02-11T20:51:05.777Z,79.57
2023-02-11T20:53:35.500Z,78.99
2023-02-11T20:56:04.312Z,79.35
2023-02-11T20:58:32.481Z,79.52
2023-02-11T21:01:07.570Z,80.08
2023-02-11T21:03:35.598Z,79.14
2023-02-11T21:06:05.624Z,79.39
2023-02-11T21:08:33.531Z,79.09
2023-02-11T21:11:01.878Z,79.46
2023-02-11T21:13:29.684Z,79.40
2023-02-11T21:15:58.481Z,79.26
2023-02-11T21:18:26.884Z,79.19
2023-02-11T21:20:56.097Z,79.57
2023-02-11T21:23:25.532Z,79.56
2023-02-11T21:25:54.863Z,79.09
2023-02-11T21:28:26.185Z,79.72
2023-02-11T21:30:54.748Z,79.52
2023-02-11T21:33:23.364Z,79.38
2023-02-11T21:35:51.775Z,79.45
2023-02-11T21:38:19.610Z,79.39
2023-02-11T21:40:48.928Z,79.92
2023-02-11T21:43:17.607Z,79.59
2023-02-11T21:45:46.614Z,79.89
2023-02-11T21:48:15.408Z,79.46
2023-02-11T21:50:44.477Z,79.73
2023-02-11T21:53:13.480Z,79.54
2023-02-11T21:55:41.888Z,79.25
2023-02-11T21:58:12.909Z,79.72
2023-02-11T22:00:40.859Z,79.52
2023-02-11T22:03:08.915Z,79.84
2023-02-11T22:05:40.212Z,79.29
2023-02-11T22:08:08.010Z,79.35
2023-02-11T22:10:35.832Z,78.96
2023-02-11T22:13:03.605Z,79.58
2023-02-11T22:15:32.785Z,79.48
2023-02-11T22:18:00.554Z,79.53
2023-02-11T22:20:28.414Z,79.36
2023-02-11T22:22:56.200Z,79.52
2023-02-11T22:25:23.992Z,79.72
2023-02-11T22:27:51.773Z,79.79
2023-02-11T22:30:19.849Z,79.67
2023-02-11T22:32:49.339Z,80.50
2023-02-11T22:35:17.286Z,79.82
2023-02-11T22:37:45.113Z,79.44
2023-02-11T22:40:14.256Z,79.56
2023-02-11T22:42:42.050Z,79.73
2023-02-11T22:45:10.593Z,79.31
2023-02-11T22:47:38.872Z,79.63
2023-02-11T22:50:08.764Z,79.92
2023-02-11T22:52:37.170Z,79.61
2023-02-11T22:55:05.435Z,80.41
2023-02-11T22:57:33.204Z,79.80
2023-02-11T23:00:01.067Z,80.11
2023-02-11T23:02:28.954Z,80.31
2023-02-11T23:04:56.871Z,80.32
2023-02-11T23:07:26.131Z,79.92
2023-02-11T23:09:53.883Z,79.82
2023-02-11T23:12:21.674Z,80.13
2023-02-11T23:14:49.463Z,80.39
2023-02-11T23:17:17.394Z,80.02
2023-02-11T23:19:45.154Z,80.22
2023-02-11T23:22:13.133Z,79.83
2023-02-11T23:24:42.282Z,80.50
2023-02-11T23:27:10.060Z,80.47
2023-02-11T23:29:37.890Z,80.26
2023-02-11T23:32:06.205Z,80.19
2023-02-11T23:34:34.014Z,80.24
2023-02-11T23:37:01.944Z,80.89
2023-02-11T23:39:30.659Z,80.42
2023-02-11T23:41:59.814Z,80.18
2023-02-11T23:44:28.014Z,80.41
2023-02-11T23:46:56.050Z,80.79
2023-02-11T23:49:24.114Z,80.89
2023-02-11T23:51:51.977Z,80.74
2023-02-11T23:54:19.814Z,80.42
2023-02-11T23:56:47.662Z,80.78
2023-02-11T23:59:17.062Z,80.49
